Test XHTML 1.0 Strict Page for WU-History Testing
Station Historical Data
 
Daily Summary for March 23, 2017 Units:  Both    English   Metric
« Previous Day
Next Day »
Daily Weekly Monthly Yearly Custom
  Current: High: Low: Average:
Temperature: 40.5 °F /  4.7 °C 40.5 °F /  4.7 °C 30.9 °F /  -0.6 °C 34.7 °F /  1.5 °C
Dew Point: 40.5 °F /  4.7 °C 40.5 °F /  4.7 °C 30.9 °F /  -0.6 °C 34.7 °F /  1.5 °C
Humidity: 100 % 100 % 100 % 100 %
Wind Speed: 0.0 mph /  0 km/h 6.2 mph /  10 km/h - 0.5 mph /  0.8 km/h
Wind Gust: 0.0 mph /  0 km/h 6.2 mph /  10 km/h - -
Wind:Calm - - ENE
Pressure: 30.00 in /  1015.8 hPa 30.00 in /  1015.8 hPa 29.91 in /  1012.8 hPa -
Precipitation: 0.00 in /  0 mm      
Historical Graphs
 
 
Weather-Above Climate History
Untitled
Tabular Data for March 23, 2017
Time Temperature Dew Point Pressure Wind Wind Speed Wind Gust Humidity Rainfall Rate (Hourly) solar Conditions
00:02 33.6 °F /  0.9 °C 33.6 °F /  0.9 °C 29.91 in /  1012.8 hPa Calm     100 % 0.00 in /  0 mm 0.0 W/m2 RA
00:07 33.6 °F /  0.9 °C 33.6 °F /  0.9 °C 29.91 in /  1012.8 hPa Calm     100 % 0.00 in /  0 mm 0.0 W/m2 RA
00:12 33.3 °F /  0.7 °C 33.3 °F /  0.7 °C 29.91 in /  1012.8 hPa Calm     100 % 0.00 in /  0 mm 46.5 W/m2
00:17 33.3 °F /  0.7 °C 33.3 °F /  0.7 °C 29.91 in /  1012.8 hPa Calm     100 % 0.00 in /  0 mm 0.0 W/m2
00:23 32.9 °F /  0.5 °C 32.9 °F /  0.5 °C 29.91 in /  1012.8 hPa Calm     100 % 0.00 in /  0 mm 0.0 W/m2
00:28 33.1 °F /  0.6 °C 33.1 °F /  0.6 °C 29.91 in /  1012.8 hPa Calm     100 % 0.00 in /  0 mm 10.5 W/m2
00:33 32.9 °F /  0.5 °C 32.9 °F /  0.5 °C 29.91 in /  1012.8 hPa Calm     100 % 0.00 in /  0 mm 0.0 W/m2
00:38 32.5 °F /  0.3 °C 32.5 °F /  0.3 °C 29.91 in /  1012.8 hPa Calm     100 % 0.00 in /  0 mm 0.0 W/m2
00:43 32.7 °F /  0.4 °C 32.7 °F /  0.4 °C 29.91 in /  1012.8 hPa Calm     100 % 0.00 in /  0 mm 0.0 W/m2
00:48 31.6 °F /  -0.2 °C 31.6 °F /  -0.2 °C 29.92 in /  1013.1 hPa Calm     100 % 0.00 in /  0 mm 15.0 W/m2
00:49 32.5 °F /  0.3 °C 32.5 °F /  0.3 °C 29.91 in /  1012.8 hPa Calm     100 % 0.00 in /  0 mm 0.0 W/m2
00:54 31.5 °F /  -0.3 °C 31.5 °F /  -0.3 °C 29.92 in /  1013.1 hPa Calm     100 % 0.00 in /  0 mm 0.0 W/m2
00:59 31.6 °F /  -0.2 °C 31.6 °F /  -0.2 °C 29.92 in /  1013.1 hPa Calm     100 % 0.00 in /  0 mm 0.0 W/m2
01:09 31.5 °F /  -0.3 °C 31.5 °F /  -0.3 °C 29.93 in /  1013.4 hPa Calm     100 % 0.00 in /  0 mm 0.0 W/m2
01:14 31.5 °F /  -0.3 °C 31.5 °F /  -0.3 °C 29.93 in /  1013.4 hPa Calm     100 % 0.00 in /  0 mm 0.0 W/m2
01:19 31.1 °F /  -0.5 °C 31.1 °F /  -0.5 °C 29.93 in /  1013.4 hPa Calm     100 % 0.00 in /  0 mm 0.0 W/m2
01:24 31.5 °F /  -0.3 °C 31.5 °F /  -0.3 °C 29.93 in /  1013.4 hPa Calm     100 % 0.00 in /  0 mm 0.0 W/m2
01:29 31.5 °F /  -0.3 °C 31.5 °F /  -0.3 °C 29.93 in /  1013.4 hPa Calm     100 % 0.00 in /  0 mm 0.0 W/m2
01:34 31.3 °F /  -0.4 °C 31.3 °F /  -0.4 °C 29.93 in /  1013.4 hPa Calm     100 % 0.00 in /  0 mm 9.0 W/m2
01:39 31.5 °F /  -0.3 °C 31.5 °F /  -0.3 °C 29.93 in /  1013.4 hPa Calm     100 % 0.00 in /  0 mm 0.0 W/m2
01:44 31.3 °F /  -0.4 °C 31.3 °F /  -0.4 °C 29.93 in /  1013.4 hPa Calm     100 % 0.00 in /  0 mm 0.0 W/m2
01:49 31.3 °F /  -0.4 °C 31.3 °F /  -0.4 °C 29.93 in /  1013.4 hPa Calm     100 % 0.00 in /  0 mm 10.5 W/m2
01:54 31.1 °F /  -0.5 °C 31.1 °F /  -0.5 °C 29.93 in /  1013.4 hPa Calm     100 % 0.00 in /  0 mm 0.0 W/m2
01:59 31.1 °F /  -0.5 °C 31.1 °F /  -0.5 °C 29.93 in /  1013.4 hPa Calm     100 % 0.00 in /  0 mm 0.0 W/m2
02:04 30.9 °F /  -0.6 °C 30.9 °F /  -0.6 °C 29.94 in /  1013.8 hPa Calm     100 % 0.00 in /  0 mm 12.0 W/m2
02:10 31.1 °F /  -0.5 °C 31.1 °F /  -0.5 °C 29.94 in /  1013.8 hPa Calm     100 % 0.00 in /  0 mm 0.0 W/m2
02:15 31.1 °F /  -0.5 °C 31.1 °F /  -0.5 °C 29.94 in /  1013.8 hPa Calm     100 % 0.00 in /  0 mm 0.0 W/m2
02:20 31.5 °F /  -0.3 °C 31.5 °F /  -0.3 °C 29.94 in /  1013.8 hPa Calm     100 % 0.00 in /  0 mm 10.5 W/m2
02:25 31.3 °F /  -0.4 °C 31.3 °F /  -0.4 °C 29.94 in /  1013.8 hPa Calm     100 % 0.00 in /  0 mm 0.0 W/m2
02:30 31.5 °F /  -0.3 °C 31.5 °F /  -0.3 °C 29.94 in /  1013.8 hPa Calm     100 % 0.00 in /  0 mm 0.0 W/m2
02:35 31.3 °F /  -0.4 °C 31.3 °F /  -0.4 °C 29.94 in /  1013.8 hPa Calm     100 % 0.00 in /  0 mm 10.5 W/m2
02:40 31.5 °F /  -0.3 °C 31.5 °F /  -0.3 °C 29.94 in /  1013.8 hPa Calm     100 % 0.00 in /  0 mm 0.0 W/m2
02:45 31.6 °F /  -0.2 °C 31.6 °F /  -0.2 °C 29.94 in /  1013.8 hPa Calm     100 % 0.00 in /  0 mm 0.0 W/m2
02:50 31.6 °F /  -0.2 °C 31.6 °F /  -0.2 °C 29.95 in /  1014.1 hPa Calm     100 % 0.00 in /  0 mm 25.5 W/m2
02:55 32.7 °F /  0.4 °C 32.7 °F /  0.4 °C 29.94 in /  1013.8 hPa Calm     100 % 0.00 in /  0 mm 13.5 W/m2
03:00 32.9 °F /  0.5 °C 32.9 °F /  0.5 °C 29.94 in /  1013.8 hPa Calm     100 % 0.00 in /  0 mm 0.0 W/m2
03:05 33.3 °F /  0.7 °C 33.3 °F /  0.7 °C 29.95 in /  1014.1 hPa Calm     100 % 0.00 in /  0 mm 13.5 W/m2
03:10 33.6 °F /  0.9 °C 33.6 °F /  0.9 °C 29.95 in /  1014.1 hPa Calm     100 % 0.00 in /  0 mm 0.0 W/m2
03:15 33.8 °F /  1 °C 33.8 °F /  1 °C 29.95 in /  1014.1 hPa Calm     100 % 0.00 in /  0 mm 10.5 W/m2
03:20 34.2 °F /  1.2 °C 34.2 °F /  1.2 °C 29.95 in /  1014.1 hPa Calm     100 % 0.00 in /  0 mm 9.0 W/m2
03:25 34.5 °F /  1.4 °C 34.5 °F /  1.4 °C 29.95 in /  1014.1 hPa SE 3.2 mph /  5.1 km/h 3.2 mph /  5.1 km/h 100 % 0.00 in /  0 mm 22.5 W/m2
03:30 35.1 °F /  1.7 °C 35.1 °F /  1.7 °C 29.95 in /  1014.1 hPa NNE 0.8 mph /  1.3 km/h 0.8 mph /  1.3 km/h 100 % 0.00 in /  0 mm 0.0 W/m2
03:35 35.4 °F /  1.9 °C 35.4 °F /  1.9 °C 29.96 in /  1014.4 hPa NE 2.3 mph /  3.7 km/h 2.3 mph /  3.7 km/h 100 % 0.00 in /  0 mm 12.0 W/m2
03:41 35.8 °F /  2.1 °C 35.8 °F /  2.1 °C 29.95 in /  1014.1 hPa NNE 1.2 mph /  1.9 km/h 1.2 mph /  1.9 km/h 100 % 0.00 in /  0 mm 9.0 W/m2
03:46 36.0 °F /  2.2 °C 36.0 °F /  2.2 °C 29.96 in /  1014.4 hPa North 4.4 mph /  7.1 km/h 4.4 mph /  7.1 km/h 100 % 0.00 in /  0 mm 0.0 W/m2
03:51 36.3 °F /  2.4 °C 36.3 °F /  2.4 °C 29.97 in /  1014.8 hPa NNE 4.0 mph /  6.4 km/h 4.0 mph /  6.4 km/h 100 % 0.00 in /  0 mm 12.0 W/m2
03:56 36.3 °F /  2.4 °C 36.3 °F /  2.4 °C 29.96 in /  1014.4 hPa Calm     100 % 0.00 in /  0 mm 16.5 W/m2
04:01 36.9 °F /  2.7 °C 36.9 °F /  2.7 °C 29.96 in /  1014.4 hPa NNE 1.7 mph /  2.7 km/h 1.7 mph /  2.7 km/h 100 % 0.00 in /  0 mm 0.0 W/m2
04:06 36.5 °F /  2.5 °C 36.5 °F /  2.5 °C 29.96 in /  1014.4 hPa Calm     100 % 0.00 in /  0 mm 12.0 W/m2
04:11 37.0 °F /  2.8 °C 37.0 °F /  2.8 °C 29.97 in /  1014.8 hPa Calm     100 % 0.00 in /  0 mm 10.5 W/m2
04:21 37.2 °F /  2.9 °C 37.2 °F /  2.9 °C 29.97 in /  1014.8 hPa Calm     100 % 0.00 in /  0 mm 15.0 W/m2
04:26 37.4 °F /  3 °C 37.4 °F /  3 °C 29.97 in /  1014.8 hPa Calm     100 % 0.00 in /  0 mm 10.5 W/m2
04:31 37.6 °F /  3.1 °C 37.6 °F /  3.1 °C 29.97 in /  1014.8 hPa Calm     100 % 0.00 in /  0 mm 0.0 W/m2
04:36 37.6 °F /  3.1 °C 37.6 °F /  3.1 °C 29.97 in /  1014.8 hPa Calm     100 % 0.00 in /  0 mm 10.5 W/m2
04:41 38.1 °F /  3.4 °C 38.1 °F /  3.4 °C 29.97 in /  1014.8 hPa Calm     100 % 0.00 in /  0 mm 12.0 W/m2
04:46 38.3 °F /  3.5 °C 38.3 °F /  3.5 °C 29.98 in /  1015.1 hPa ENE 6.2 mph /  10 km/h 6.2 mph /  10 km/h 100 % 0.00 in /  0 mm 0.0 W/m2
04:51 38.7 °F /  3.7 °C 38.7 °F /  3.7 °C 29.98 in /  1015.1 hPa NE 4.6 mph /  7.4 km/h 4.6 mph /  7.4 km/h 100 % 0.00 in /  0 mm 10.5 W/m2
04:56 38.8 °F /  3.8 °C 38.8 °F /  3.8 °C 29.98 in /  1015.1 hPa Calm     100 % 0.00 in /  0 mm 9.0 W/m2
05:01 39.0 °F /  3.9 °C 39.0 °F /  3.9 °C 29.98 in /  1015.1 hPa Calm     100 % 0.00 in /  0 mm 0.0 W/m2
05:06 39.0 °F /  3.9 °C 39.0 °F /  3.9 °C 29.98 in /  1015.1 hPa NNW 1.2 mph /  1.9 km/h 1.2 mph /  1.9 km/h 100 % 0.00 in /  0 mm 12.0 W/m2
05:11 39.0 °F /  3.9 °C 39.0 °F /  3.9 °C 29.98 in /  1015.1 hPa NE 2.6 mph /  4.2 km/h 2.6 mph /  4.2 km/h 100 % 0.00 in /  0 mm 9.0 W/m2
05:16 39.2 °F /  4 °C 39.2 °F /  4 °C 29.99 in /  1015.5 hPa Calm     100 % 0.00 in /  0 mm 0.0 W/m2
05:21 39.4 °F /  4.1 °C 39.4 °F /  4.1 °C 29.99 in /  1015.5 hPa NE 2.3 mph /  3.7 km/h 2.3 mph /  3.7 km/h 100 % 0.00 in /  0 mm 0.0 W/m2
05:26 39.7 °F /  4.3 °C 39.7 °F /  4.3 °C 29.99 in /  1015.5 hPa NE 2.3 mph /  3.7 km/h   100 % 0.00 in /  0 mm 12.0 W/m2
05:31 39.7 °F /  4.3 °C 39.7 °F /  4.3 °C 29.99 in /  1015.5 hPa ENE 1.2 mph /  1.9 km/h 1.2 mph /  1.9 km/h 100 % 0.00 in /  0 mm 0.0 W/m2
05:37 39.9 °F /  4.4 °C 39.9 °F /  4.4 °C 29.99 in /  1015.5 hPa Calm     100 % 0.00 in /  0 mm 0.0 W/m2
05:42 39.9 °F /  4.4 °C 39.9 °F /  4.4 °C 29.99 in /  1015.5 hPa Calm     100 % 0.00 in /  0 mm 10.5 W/m2
05:47 40.1 °F /  4.5 °C 40.1 °F /  4.5 °C 29.99 in /  1015.5 hPa Calm     100 % 0.00 in /  0 mm 0.0 W/m2
05:52 40.1 °F /  4.5 °C 40.1 °F /  4.5 °C 30.00 in /  1015.8 hPa Calm     100 % 0.00 in /  0 mm 0.0 W/m2
05:57 40.3 °F /  4.6 °C 40.3 °F /  4.6 °C 30.00 in /  1015.8 hPa Calm     100 % 0.00 in /  0 mm 9.0 W/m2
06:02 40.5 °F /  4.7 °C 40.5 °F /  4.7 °C 30.00 in /  1015.8 hPa Calm     100 % 0.00 in /  0 mm 10.5 W/m2
Wether-Above
Compliments of Weather Underground - 1 mb
Welcome to Weather-Above
Cheddleton weather station supplies various organisations with data from our weather station one of them is the weather Underground this information displayed here is coming from the weather Underground server 

If any information is used please acknowledge the source to www weather-above.com or weather Underground